sensor_id;sensor_type;location;lat;lon;timestamp;P1;durP1;ratioP1;P2;durP2;ratioP2
16063;SDS011;8136;53.172;8.256;2023-11-21T01:09:12;15.00;;;7.57;;
16063;SDS011;8136;53.172;8.256;2023-11-21T01:15:44;18.77;;;8.20;;
16063;SDS011;8136;53.172;8.256;2023-11-21T01:26:09;12.40;;;6.80;;
16063;SDS011;8136;53.172;8.256;2023-11-21T01:28:36;14.27;;;8.20;;
16063;SDS011;8136;53.172;8.256;2023-11-21T01:31:03;10.87;;;7.20;;
16063;SDS011;8136;53.172;8.256;2023-11-21T01:33:32;12.63;;;6.53;;
16063;SDS011;8136;53.172;8.256;2023-11-21T01:35:58;12.37;;;6.60;;
16063;SDS011;8136;53.172;8.256;2023-11-21T01:38:25;13.93;;;6.77;;
16063;SDS011;8136;53.172;8.256;2023-11-21T01:40:52;23.23;;;8.23;;
16063;SDS011;8136;53.172;8.256;2023-11-21T01:43:20;16.27;;;7.57;;
16063;SDS011;8136;53.172;8.256;2023-11-21T01:45:47;12.13;;;6.73;;
16063;SDS011;8136;53.172;8.256;2023-11-21T01:48:13;14.90;;;6.83;;
16063;SDS011;8136;53.172;8.256;2023-11-21T01:50:41;20.93;;;7.87;;
16063;SDS011;8136;53.172;8.256;2023-11-21T01:53:15;14.77;;;7.30;;
16063;SDS011;8136;53.172;8.256;2023-11-21T01:55:43;16.37;;;7.03;;
16063;SDS011;8136;53.172;8.256;2023-11-21T01:58:12;14.53;;;6.70;;
16063;SDS011;8136;53.172;8.256;2023-11-21T02:00:41;13.10;;;6.70;;
16063;SDS011;8136;53.172;8.256;2023-11-21T02:03:08;14.53;;;6.07;;
16063;SDS011;8136;53.172;8.256;2023-11-21T02:05:35;15.10;;;6.97;;
16063;SDS011;8136;53.172;8.256;2023-11-21T02:08:03;15.33;;;6.77;;
16063;SDS011;8136;53.172;8.256;2023-11-21T02:10:32;15.03;;;7.10;;
16063;SDS011;8136;53.172;8.256;2023-11-21T02:12:58;19.23;;;7.73;;
16063;SDS011;8136;53.172;8.256;2023-11-21T02:15:27;12.67;;;6.73;;
16063;SDS011;8136;53.172;8.256;2023-11-21T02:17:56;13.13;;;6.80;;
16063;SDS011;8136;53.172;8.256;2023-11-21T02:20:24;16.47;;;7.03;;
16063;SDS011;8136;53.172;8.256;2023-11-21T02:22:55;12.47;;;6.90;;
16063;SDS011;8136;53.172;8.256;2023-11-21T02:25:24;15.13;;;6.70;;
16063;SDS011;8136;53.172;8.256;2023-11-21T02:27:52;11.67;;;6.53;;
16063;SDS011;8136;53.172;8.256;2023-11-21T02:30:20;23.43;;;7.33;;
16063;SDS011;8136;53.172;8.256;2023-11-21T02:32:49;15.43;;;6.87;;
16063;SDS011;8136;53.172;8.256;2023-11-21T02:38:14;9.87;;;6.13;;
16063;SDS011;8136;53.172;8.256;2023-11-21T02:40:41;15.77;;;6.70;;
16063;SDS011;8136;53.172;8.256;2023-11-21T02:43:08;11.27;;;6.40;;
16063;SDS011;8136;53.172;8.256;2023-11-21T02:45:35;11.80;;;6.10;;
16063;SDS011;8136;53.172;8.256;2023-11-21T02:48:02;10.30;;;6.10;;
16063;SDS011;8136;53.172;8.256;2023-11-21T02:50:29;17.20;;;7.10;;
16063;SDS011;8136;53.172;8.256;2023-11-21T02:52:56;17.90;;;6.43;;
16063;SDS011;8136;53.172;8.256;2023-11-21T02:55:26;22.37;;;6.77;;
16063;SDS011;8136;53.172;8.256;2023-11-21T02:57:54;13.63;;;6.53;;
16063;SDS011;8136;53.172;8.256;2023-11-21T03:00:22;11.30;;;6.77;;
16063;SDS011;8136;53.172;8.256;2023-11-21T03:02:51;14.97;;;7.13;;
16063;SDS011;8136;53.172;8.256;2023-11-21T03:05:19;12.43;;;6.20;;
16063;SDS011;8136;53.172;8.256;2023-11-21T03:07:46;11.23;;;6.63;;
16063;SDS011;8136;53.172;8.256;2023-11-21T03:10:13;14.63;;;8.17;;
16063;SDS011;8136;53.172;8.256;2023-11-21T03:12:41;12.23;;;7.90;;
16063;SDS011;8136;53.172;8.256;2023-11-21T03:15:09;16.77;;;7.13;;
16063;SDS011;8136;53.172;8.256;2023-11-21T03:17:36;13.63;;;7.57;;
16063;SDS011;8136;53.172;8.256;2023-11-21T03:20:03;16.40;;;7.50;;
16063;SDS011;8136;53.172;8.256;2023-11-21T03:22:35;16.93;;;7.70;;
16063;SDS011;8136;53.172;8.256;2023-11-21T03:25:02;15.53;;;7.37;;
16063;SDS011;8136;53.172;8.256;2023-11-21T03:27:30;13.90;;;7.93;;
16063;SDS011;8136;53.172;8.256;2023-11-21T03:29:59;14.37;;;8.43;;
16063;SDS011;8136;53.172;8.256;2023-11-21T03:32:26;13.60;;;7.93;;
16063;SDS011;8136;53.172;8.256;2023-11-21T03:34:53;18.50;;;8.33;;
16063;SDS011;8136;53.172;8.256;2023-11-21T03:37:21;15.67;;;8.77;;
16063;SDS011;8136;53.172;8.256;2023-11-21T03:39:48;13.80;;;8.10;;
16063;SDS011;8136;53.172;8.256;2023-11-21T03:42:15;18.83;;;9.00;;
16063;SDS011;8136;53.172;8.256;2023-11-21T03:44:42;14.53;;;8.67;;
16063;SDS011;8136;53.172;8.256;2023-11-21T03:47:10;19.13;;;9.17;;
16063;SDS011;8136;53.172;8.256;2023-11-21T03:49:37;15.60;;;8.20;;
16063;SDS011;8136;53.172;8.256;2023-11-21T03:52:04;16.33;;;8.40;;
16063;SDS011;8136;53.172;8.256;2023-11-21T03:54:32;17.90;;;9.20;;
16063;SDS011;8136;53.172;8.256;2023-11-21T03:56:59;14.87;;;8.60;;
16063;SDS011;8136;53.172;8.256;2023-11-21T03:59:26;18.13;;;9.87;;
16063;SDS011;8136;53.172;8.256;2023-11-21T04:01:54;17.67;;;9.70;;
16063;SDS011;8136;53.172;8.256;2023-11-21T04:04:23;19.43;;;10.60;;
16063;SDS011;8136;53.172;8.256;2023-11-21T04:06:50;20.77;;;9.83;;
16063;SDS011;8136;53.172;8.256;2023-11-21T04:09:17;21.03;;;10.43;;
16063;SDS011;8136;53.172;8.256;2023-11-21T04:11:44;21.03;;;10.80;;
16063;SDS011;8136;53.172;8.256;2023-11-21T04:14:11;20.53;;;11.03;;
16063;SDS011;8136;53.172;8.256;2023-11-21T04:16:38;22.00;;;11.63;;
16063;SDS011;8136;53.172;8.256;2023-11-21T04:19:07;24.33;;;12.50;;
16063;SDS011;8136;53.172;8.256;2023-11-21T04:21:36;20.37;;;12.03;;
16063;SDS011;8136;53.172;8.256;2023-11-21T04:24:03;21.53;;;12.20;;
16063;SDS011;8136;53.172;8.256;2023-11-21T04:26:31;19.77;;;11.63;;
16063;SDS011;8136;53.172;8.256;2023-11-21T04:28:58;24.07;;;12.57;;
16063;SDS011;8136;53.172;8.256;2023-11-21T04:31:25;20.80;;;12.40;;
16063;SDS011;8136;53.172;8.256;2023-11-21T04:33:51;21.73;;;12.63;;
16063;SDS011;8136;53.172;8.256;2023-11-21T04:36:18;23.60;;;13.23;;
16063;SDS011;8136;53.172;8.256;2023-11-21T04:38:47;24.80;;;13.07;;
16063;SDS011;8136;53.172;8.256;2023-11-21T04:41:14;20.63;;;12.20;;
16063;SDS011;8136;53.172;8.256;2023-11-21T04:43:40;23.07;;;13.33;;
16063;SDS011;8136;53.172;8.256;2023-11-21T04:46:08;23.40;;;13.43;;
16063;SDS011;8136;53.172;8.256;2023-11-21T04:48:35;20.70;;;13.07;;
16063;SDS011;8136;53.172;8.256;2023-11-21T04:51:02;24.37;;;12.50;;
16063;SDS011;8136;53.172;8.256;2023-11-21T04:53:30;21.83;;;11.83;;
16063;SDS011;8136;53.172;8.256;2023-11-21T04:55:58;21.30;;;12.33;;
16063;SDS011;8136;53.172;8.256;2023-11-21T04:58:25;19.90;;;12.23;;
16063;SDS011;8136;53.172;8.256;2023-11-21T05:00:52;19.97;;;12.43;;
16063;SDS011;8136;53.172;8.256;2023-11-21T05:03:18;18.50;;;11.00;;
16063;SDS011;8136;53.172;8.256;2023-11-21T05:05:45;22.83;;;13.00;;
16063;SDS011;8136;53.172;8.256;2023-11-21T05:08:12;19.17;;;12.20;;
16063;SDS011;8136;53.172;8.256;2023-11-21T05:10:39;23.33;;;12.10;;
16063;SDS011;8136;53.172;8.256;2023-11-21T05:13:07;20.40;;;11.73;;
16063;SDS011;8136;53.172;8.256;2023-11-21T05:15:35;16.43;;;10.60;;
16063;SDS011;8136;53.172;8.256;2023-11-21T05:18:02;16.37;;;11.37;;
16063;SDS011;8136;53.172;8.256;2023-11-21T05:20:30;18.40;;;10.37;;
16063;SDS011;8136;53.172;8.256;2023-11-21T05:22:58;16.43;;;10.67;;
16063;SDS011;8136;53.172;8.256;2023-11-21T05:25:25;17.00;;;10.70;;
16063;SDS011;8136;53.172;8.256;2023-11-21T05:27:51;15.60;;;10.00;;
16063;SDS011;8136;53.172;8.256;2023-11-21T05:30:20;15.30;;;10.20;;
16063;SDS011;8136;53.172;8.256;2023-11-21T05:32:47;17.23;;;10.10;;
16063;SDS011;8136;53.172;8.256;2023-11-21T05:35:14;18.23;;;9.63;;
16063;SDS011;8136;53.172;8.256;2023-11-21T05:37:41;18.00;;;9.93;;
16063;SDS011;8136;53.172;8.256;2023-11-21T05:40:09;16.07;;;9.80;;
16063;SDS011;8136;53.172;8.256;2023-11-21T05:42:36;15.90;;;9.47;;
16063;SDS011;8136;53.172;8.256;2023-11-21T05:45:04;17.67;;;9.77;;
16063;SDS011;8136;53.172;8.256;2023-11-21T05:47:37;17.70;;;10.27;;
16063;SDS011;8136;53.172;8.256;2023-11-21T05:50:05;17.27;;;10.00;;
16063;SDS011;8136;53.172;8.256;2023-11-21T05:52:35;16.27;;;9.93;;
16063;SDS011;8136;53.172;8.256;2023-11-21T05:55:02;19.03;;;10.20;;
16063;SDS011;8136;53.172;8.256;2023-11-21T05:57:32;13.93;;;9.77;;
16063;SDS011;8136;53.172;8.256;2023-11-21T05:59:59;15.67;;;9.63;;
16063;SDS011;8136;53.172;8.256;2023-11-21T06:02:28;16.87;;;9.60;;
16063;SDS011;8136;53.172;8.256;2023-11-21T06:04:56;14.17;;;9.20;;
16063;SDS011;8136;53.172;8.256;2023-11-21T06:07:23;17.40;;;9.97;;
16063;SDS011;8136;53.172;8.256;2023-11-21T06:09:50;15.10;;;9.57;;
16063;SDS011;8136;53.172;8.256;2023-11-21T06:12:16;18.90;;;9.20;;
16063;SDS011;8136;53.172;8.256;2023-11-21T06:14:45;16.47;;;9.47;;
16063;SDS011;8136;53.172;8.256;2023-11-21T06:17:13;17.83;;;10.20;;
16063;SDS011;8136;53.172;8.256;2023-11-21T06:19:39;18.23;;;10.97;;
16063;SDS011;8136;53.172;8.256;2023-11-21T06:22:08;20.00;;;11.47;;
16063;SDS011;8136;53.172;8.256;2023-11-21T06:24:35;19.77;;;10.07;;
16063;SDS011;8136;53.172;8.256;2023-11-21T06:27:03;17.27;;;11.00;;
16063;SDS011;8136;53.172;8.256;2023-11-21T06:29:30;13.37;;;9.40;;
16063;SDS011;8136;53.172;8.256;2023-11-21T06:31:57;14.80;;;9.57;;
16063;SDS011;8136;53.172;8.256;2023-11-21T06:34:24;15.53;;;8.50;;
16063;SDS011;8136;53.172;8.256;2023-11-21T06:36:53;11.07;;;8.00;;
16063;SDS011;8136;53.172;8.256;2023-11-21T06:39:21;9.17;;;7.67;;
16063;SDS011;8136;53.172;8.256;2023-11-21T06:41:48;9.03;;;6.83;;
16063;SDS011;8136;53.172;8.256;2023-11-21T06:44:17;9.60;;;6.70;;
16063;SDS011;8136;53.172;8.256;2023-11-21T06:46:44;11.33;;;6.60;;
16063;SDS011;8136;53.172;8.256;2023-11-21T06:49:11;9.13;;;6.20;;
16063;SDS011;8136;53.172;8.256;2023-11-21T06:51:38;7.77;;;5.97;;
16063;SDS011;8136;53.172;8.256;2023-11-21T06:54:05;9.93;;;6.97;;
16063;SDS011;8136;53.172;8.256;2023-11-21T06:56:34;10.53;;;6.77;;
16063;SDS011;8136;53.172;8.256;2023-11-21T06:59:00;9.37;;;6.57;;
16063;SDS011;8136;53.172;8.256;2023-11-21T07:01:30;9.17;;;6.37;;
16063;SDS011;8136;53.172;8.256;2023-11-21T07:03:59;11.37;;;7.40;;
16063;SDS011;8136;53.172;8.256;2023-11-21T07:06:26;9.27;;;6.93;;
16063;SDS011;8136;53.172;8.256;2023-11-21T07:08:53;11.27;;;7.03;;
16063;SDS011;8136;53.172;8.256;2023-11-21T07:11:22;10.47;;;6.90;;
16063;SDS011;8136;53.172;8.256;2023-11-21T07:13:50;10.47;;;6.67;;
16063;SDS011;8136;53.172;8.256;2023-11-21T07:16:17;9.60;;;6.47;;
16063;SDS011;8136;53.172;8.256;2023-11-21T07:18:44;11.20;;;6.70;;
16063;SDS011;8136;53.172;8.256;2023-11-21T07:21:11;10.37;;;6.57;;
16063;SDS011;8136;53.172;8.256;2023-11-21T07:23:38;9.80;;;6.63;;
16063;SDS011;8136;53.172;8.256;2023-11-21T07:26:06;12.90;;;6.67;;
16063;SDS011;8136;53.172;8.256;2023-11-21T07:28:38;9.53;;;6.47;;
16063;SDS011;8136;53.172;8.256;2023-11-21T07:31:08;10.50;;;6.77;;
16063;SDS011;8136;53.172;8.256;2023-11-21T07:33:53;9.20;;;6.47;;
16063;SDS011;8136;53.172;8.256;2023-11-21T07:39:09;10.87;;;6.87;;
16063;SDS011;8136;53.172;8.256;2023-11-21T07:41:44;10.83;;;6.53;;
16063;SDS011;8136;53.172;8.256;2023-11-21T07:44:20;11.97;;;6.90;;
16063;SDS011;8136;53.172;8.256;2023-11-21T07:49:45;8.23;;;5.87;;
16063;SDS011;8136;53.172;8.256;2023-11-21T07:52:19;9.07;;;6.20;;
16063;SDS011;8136;53.172;8.256;2023-11-21T07:54:57;10.83;;;6.60;;
16063;SDS011;8136;53.172;8.256;2023-11-21T07:57:32;12.20;;;6.87;;
16063;SDS011;8136;53.172;8.256;2023-11-21T08:00:18;9.20;;;6.57;;
16063;SDS011;8136;53.172;8.256;2023-11-21T08:05:58;10.77;;;6.73;;
16063;SDS011;8136;53.172;8.256;2023-11-21T08:11:31;9.70;;;6.13;;
16063;SDS011;8136;53.172;8.256;2023-11-21T08:14:03;10.40;;;7.00;;
16063;SDS011;8136;53.172;8.256;2023-11-21T08:16:40;8.80;;;6.20;;
16063;SDS011;8136;53.172;8.256;2023-11-21T08:19:16;8.00;;;6.67;;
16063;SDS011;8136;53.172;8.256;2023-11-21T08:21:45;8.50;;;6.03;;
16063;SDS011;8136;53.172;8.256;2023-11-21T08:24:34;9.90;;;7.10;;
16063;SDS011;8136;53.172;8.256;2023-11-21T08:27:31;10.03;;;7.03;;
16063;SDS011;8136;53.172;8.256;2023-11-21T08:30:00;11.33;;;7.00;;
16063;SDS011;8136;53.172;8.256;2023-11-21T08:32:28;8.80;;;6.97;;
16063;SDS011;8136;53.172;8.256;2023-11-21T08:35:00;11.47;;;6.63;;
16063;SDS011;8136;53.172;8.256;2023-11-21T08:37:33;10.13;;;7.03;;
16063;SDS011;8136;53.172;8.256;2023-11-21T08:40:11;9.80;;;6.57;;
16063;SDS011;8136;53.172;8.256;2023-11-21T08:43:09;9.87;;;6.90;;
16063;SDS011;8136;53.172;8.256;2023-11-21T08:45:56;9.77;;;6.60;;
16063;SDS011;8136;53.172;8.256;2023-11-21T08:49:00;9.57;;;6.77;;
16063;SDS011;8136;53.172;8.256;2023-11-21T09:00:33;10.90;;;6.73;;
16063;SDS011;8136;53.172;8.256;2023-11-21T09:03:01;10.23;;;6.97;;
16063;SDS011;8136;53.172;8.256;2023-11-21T09:11:48;10.50;;;7.30;;
16063;SDS011;8136;53.172;8.256;2023-11-21T09:14:15;8.53;;;6.13;;
16063;SDS011;8136;53.172;8.256;2023-11-21T09:16:43;8.93;;;6.40;;
16063;SDS011;8136;53.172;8.256;2023-11-21T09:19:15;10.90;;;5.87;;
16063;SDS011;8136;53.172;8.256;2023-11-21T09:21:47;9.70;;;6.43;;
16063;SDS011;8136;53.172;8.256;2023-11-21T09:27:05;10.13;;;6.77;;
16063;SDS011;8136;53.172;8.256;2023-11-21T09:29:40;9.20;;;6.57;;
16063;SDS011;8136;53.172;8.256;2023-11-21T09:32:08;8.70;;;6.70;;
16063;SDS011;8136;53.172;8.256;2023-11-21T09:34:39;9.20;;;6.93;;
16063;SDS011;8136;53.172;8.256;2023-11-21T09:37:15;10.53;;;6.90;;
16063;SDS011;8136;53.172;8.256;2023-11-21T09:39:50;10.03;;;6.63;;
16063;SDS011;8136;53.172;8.256;2023-11-21T09:42:19;10.87;;;7.00;;
16063;SDS011;8136;53.172;8.256;2023-11-21T09:45:15;10.37;;;6.60;;
16063;SDS011;8136;53.172;8.256;2023-11-21T09:47:56;9.00;;;6.30;;
16063;SDS011;8136;53.172;8.256;2023-11-21T09:50:42;8.67;;;6.30;;
16063;SDS011;8136;53.172;8.256;2023-11-21T09:53:30;11.70;;;6.73;;
16063;SDS011;8136;53.172;8.256;2023-11-21T09:56:01;8.50;;;5.83;;
16063;SDS011;8136;53.172;8.256;2023-11-21T09:58:28;11.67;;;6.57;;
16063;SDS011;8136;53.172;8.256;2023-11-21T10:01:15;10.60;;;7.43;;
16063;SDS011;8136;53.172;8.256;2023-11-21T10:03:45;10.10;;;6.60;;
16063;SDS011;8136;53.172;8.256;2023-11-21T10:06:13;9.13;;;6.43;;
16063;SDS011;8136;53.172;8.256;2023-11-21T10:08:54;9.13;;;6.00;;
16063;SDS011;8136;53.172;8.256;2023-11-21T10:11:27;8.63;;;6.47;;
16063;SDS011;8136;53.172;8.256;2023-11-21T10:14:00;8.10;;;5.97;;
16063;SDS011;8136;53.172;8.256;2023-11-21T10:16:39;9.50;;;6.40;;
16063;SDS011;8136;53.172;8.256;2023-11-21T10:19:13;10.03;;;6.37;;
16063;SDS011;8136;53.172;8.256;2023-11-21T10:21:41;9.97;;;6.53;;
16063;SDS011;8136;53.172;8.256;2023-11-21T10:24:31;9.13;;;5.90;;
16063;SDS011;8136;53.172;8.256;2023-11-21T10:27:00;9.10;;;6.40;;
16063;SDS011;8136;53.172;8.256;2023-11-21T10:29:28;9.03;;;6.20;;
16063;SDS011;8136;53.172;8.256;2023-11-21T10:32:03;8.20;;;6.33;;
16063;SDS011;8136;53.172;8.256;2023-11-21T10:34:31;9.50;;;6.57;;
16063;SDS011;8136;53.172;8.256;2023-11-21T10:36:59;9.03;;;6.13;;
16063;SDS011;8136;53.172;8.256;2023-11-21T10:39:38;9.83;;;6.60;;
16063;SDS011;8136;53.172;8.256;2023-11-21T10:42:07;8.97;;;5.93;;
16063;SDS011;8136;53.172;8.256;2023-11-21T10:44:35;8.73;;;6.13;;
16063;SDS011;8136;53.172;8.256;2023-11-21T10:47:05;12.57;;;6.70;;
16063;SDS011;8136;53.172;8.256;2023-11-21T10:49:37;9.60;;;6.23;;
16063;SDS011;8136;53.172;8.256;2023-11-21T10:52:08;10.33;;;6.43;;
16063;SDS011;8136;53.172;8.256;2023-11-21T10:54:42;7.90;;;5.60;;
16063;SDS011;8136;53.172;8.256;2023-11-21T10:57:11;8.50;;;6.43;;
16063;SDS011;8136;53.172;8.256;2023-11-21T10:59:45;10.67;;;5.60;;
16063;SDS011;8136;53.172;8.256;2023-11-21T11:02:17;11.43;;;6.80;;
16063;SDS011;8136;53.172;8.256;2023-11-21T11:04:50;9.17;;;6.37;;
16063;SDS011;8136;53.172;8.256;2023-11-21T11:07:20;8.23;;;6.10;;
16063;SDS011;8136;53.172;8.256;2023-11-21T11:09:55;9.27;;;6.13;;
16063;SDS011;8136;53.172;8.256;2023-11-21T11:12:25;6.83;;;5.70;;
16063;SDS011;8136;53.172;8.256;2023-11-21T11:14:53;9.03;;;6.10;;
16063;SDS011;8136;53.172;8.256;2023-11-21T11:17:21;9.27;;;5.80;;
16063;SDS011;8136;53.172;8.256;2023-11-21T11:19:52;8.57;;;6.30;;
16063;SDS011;8136;53.172;8.256;2023-11-21T11:22:23;8.50;;;6.07;;
16063;SDS011;8136;53.172;8.256;2023-11-21T11:25:03;8.10;;;6.30;;
16063;SDS011;8136;53.172;8.256;2023-11-21T11:27:47;9.77;;;5.63;;
16063;SDS011;8136;53.172;8.256;2023-11-21T11:30:26;9.57;;;5.57;;
16063;SDS011;8136;53.172;8.256;2023-11-21T11:33:05;8.50;;;5.97;;
16063;SDS011;8136;53.172;8.256;2023-11-21T11:35:38;7.17;;;5.53;;
16063;SDS011;8136;53.172;8.256;2023-11-21T11:38:12;7.23;;;5.20;;
16063;SDS011;8136;53.172;8.256;2023-11-21T11:40:44;8.23;;;5.03;;
16063;SDS011;8136;53.172;8.256;2023-11-21T11:43:16;7.10;;;5.37;;
16063;SDS011;8136;53.172;8.256;2023-11-21T11:46:39;8.27;;;5.70;;
16063;SDS011;8136;53.172;8.256;2023-11-21T11:49:07;7.53;;;5.57;;
16063;SDS011;8136;53.172;8.256;2023-11-21T11:51:34;9.87;;;5.60;;
16063;SDS011;8136;53.172;8.256;2023-11-21T11:54:05;8.97;;;5.27;;
16063;SDS011;8136;53.172;8.256;2023-11-21T11:56:39;8.87;;;5.63;;
16063;SDS011;8136;53.172;8.256;2023-11-21T11:59:10;6.60;;;4.93;;
16063;SDS011;8136;53.172;8.256;2023-11-21T12:01:38;8.67;;;5.23;;
16063;SDS011;8136;53.172;8.256;2023-11-21T12:04:24;8.17;;;5.10;;
16063;SDS011;8136;53.172;8.256;2023-11-21T12:07:02;6.87;;;5.37;;
16063;SDS011;8136;53.172;8.256;2023-11-21T12:09:31;8.30;;;5.33;;
16063;SDS011;8136;53.172;8.256;2023-11-21T12:11:58;6.10;;;4.67;;
16063;SDS011;8136;53.172;8.256;2023-11-21T12:14:27;8.17;;;4.93;;
16063;SDS011;8136;53.172;8.256;2023-11-21T12:16:54;5.07;;;3.93;;
16063;SDS011;8136;53.172;8.256;2023-11-21T12:19:21;4.27;;;3.30;;
16063;SDS011;8136;53.172;8.256;2023-11-21T12:21:49;3.70;;;3.07;;
16063;SDS011;8136;53.172;8.256;2023-11-21T12:24:17;3.07;;;2.70;;
16063;SDS011;8136;53.172;8.256;2023-11-21T12:26:44;4.40;;;3.43;;
16063;SDS011;8136;53.172;8.256;2023-11-21T12:29:11;3.30;;;2.60;;
16063;SDS011;8136;53.172;8.256;2023-11-21T12:31:39;5.43;;;3.30;;
16063;SDS011;8136;53.172;8.256;2023-11-21T12:34:06;4.13;;;2.93;;
16063;SDS011;8136;53.172;8.256;2023-11-21T12:36:36;4.23;;;3.20;;
16063;SDS011;8136;53.172;8.256;2023-11-21T12:39:03;4.47;;;2.90;;
16063;SDS011;8136;53.172;8.256;2023-11-21T12:41:34;4.13;;;2.87;;
16063;SDS011;8136;53.172;8.256;2023-11-21T12:44:01;6.20;;;3.13;;
16063;SDS011;8136;53.172;8.256;2023-11-21T12:46:28;4.57;;;3.23;;
16063;SDS011;8136;53.172;8.256;2023-11-21T12:48:58;4.33;;;3.27;;
16063;SDS011;8136;53.172;8.256;2023-11-21T12:51:25;5.30;;;3.40;;
16063;SDS011;8136;53.172;8.256;2023-11-21T12:53:54;5.83;;;3.57;;
16063;SDS011;8136;53.172;8.256;2023-11-21T12:56:25;4.90;;;4.17;;
16063;SDS011;8136;53.172;8.256;2023-11-21T12:58:53;5.23;;;3.83;;
16063;SDS011;8136;53.172;8.256;2023-11-21T13:01:25;5.57;;;4.00;;
16063;SDS011;8136;53.172;8.256;2023-11-21T13:03:55;5.43;;;4.50;;
16063;SDS011;8136;53.172;8.256;2023-11-21T13:06:25;7.53;;;3.60;;
16063;SDS011;8136;53.172;8.256;2023-11-21T13:08:52;4.70;;;3.33;;
16063;SDS011;8136;53.172;8.256;2023-11-21T13:11:27;4.40;;;3.60;;
16063;SDS011;8136;53.172;8.256;2023-11-21T13:13:56;5.10;;;3.97;;
16063;SDS011;8136;53.172;8.256;2023-11-21T13:16:25;6.53;;;3.77;;
16063;SDS011;8136;53.172;8.256;2023-11-21T13:19:08;12.50;;;5.73;;
16063;SDS011;8136;53.172;8.256;2023-11-21T13:21:36;9.73;;;4.63;;
16063;SDS011;8136;53.172;8.256;2023-11-21T13:24:05;4.20;;;3.77;;
16063;SDS011;8136;53.172;8.256;2023-11-21T13:26:32;6.03;;;3.60;;
16063;SDS011;8136;53.172;8.256;2023-11-21T13:28:59;7.00;;;4.13;;
16063;SDS011;8136;53.172;8.256;2023-11-21T13:31:26;6.17;;;3.57;;
16063;SDS011;8136;53.172;8.256;2023-11-21T14:22:03;3.67;;;2.73;;
16063;SDS011;8136;53.172;8.256;2023-11-21T14:24:30;11.63;;;4.17;;
16063;SDS011;8136;53.172;8.256;2023-11-21T14:26:57;6.13;;;3.60;;
16063;SDS011;8136;53.172;8.256;2023-11-21T14:29:26;6.50;;;3.63;;
16063;SDS011;8136;53.172;8.256;2023-11-21T14:31:54;4.10;;;3.30;;
16063;SDS011;8136;53.172;8.256;2023-11-21T14:34:23;5.03;;;3.60;;
16063;SDS011;8136;53.172;8.256;2023-11-21T14:36:52;6.77;;;3.43;;
16063;SDS011;8136;53.172;8.256;2023-11-21T14:39:21;6.27;;;3.93;;
16063;SDS011;8136;53.172;8.256;2023-11-21T14:41:51;4.47;;;3.53;;
16063;SDS011;8136;53.172;8.256;2023-11-21T14:44:21;5.20;;;3.67;;
16063;SDS011;8136;53.172;8.256;2023-11-21T14:46:51;6.93;;;4.10;;
16063;SDS011;8136;53.172;8.256;2023-11-21T14:49:19;5.77;;;4.40;;
16063;SDS011;8136;53.172;8.256;2023-11-21T14:51:50;6.17;;;4.50;;
16063;SDS011;8136;53.172;8.256;2023-11-21T14:54:27;6.00;;;3.47;;
16063;SDS011;8136;53.172;8.256;2023-11-21T14:57:05;4.67;;;4.23;;
16063;SDS011;8136;53.172;8.256;2023-11-21T14:59:36;4.47;;;4.07;;
16063;SDS011;8136;53.172;8.256;2023-11-21T15:02:12;6.73;;;4.43;;
16063;SDS011;8136;53.172;8.256;2023-11-21T15:04:45;7.13;;;4.77;;
16063;SDS011;8136;53.172;8.256;2023-11-21T15:07:12;5.53;;;4.00;;
16063;SDS011;8136;53.172;8.256;2023-11-21T15:09:39;4.23;;;3.70;;
16063;SDS011;8136;53.172;8.256;2023-11-21T15:12:08;4.77;;;3.57;;
16063;SDS011;8136;53.172;8.256;2023-11-21T15:14:39;4.77;;;4.07;;
16063;SDS011;8136;53.172;8.256;2023-11-21T15:17:11;4.73;;;3.70;;
16063;SDS011;8136;53.172;8.256;2023-11-21T15:19:41;4.63;;;3.83;;
16063;SDS011;8136;53.172;8.256;2023-11-21T15:22:08;4.83;;;3.60;;
16063;SDS011;8136;53.172;8.256;2023-11-21T15:27:41;5.43;;;4.03;;
16063;SDS011;8136;53.172;8.256;2023-11-21T15:30:12;6.13;;;3.93;;
16063;SDS011;8136;53.172;8.256;2023-11-21T15:32:44;6.93;;;4.40;;
16063;SDS011;8136;53.172;8.256;2023-11-21T15:35:11;5.47;;;3.83;;
16063;SDS011;8136;53.172;8.256;2023-11-21T15:37:40;5.50;;;3.60;;
16063;SDS011;8136;53.172;8.256;2023-11-21T15:40:22;4.97;;;4.17;;
16063;SDS011;8136;53.172;8.256;2023-11-21T15:42:50;5.03;;;3.90;;
16063;SDS011;8136;53.172;8.256;2023-11-21T15:45:17;5.80;;;4.63;;
16063;SDS011;8136;53.172;8.256;2023-11-21T15:47:46;4.20;;;3.40;;
16063;SDS011;8136;53.172;8.256;2023-11-21T15:50:16;4.90;;;4.23;;
16063;SDS011;8136;53.172;8.256;2023-11-21T15:52:43;4.43;;;3.20;;
16063;SDS011;8136;53.172;8.256;2023-11-21T15:55:46;6.10;;;4.73;;
16063;SDS011;8136;53.172;8.256;2023-11-21T15:59:21;3.70;;;3.40;;
16063;SDS011;8136;53.172;8.256;2023-11-21T16:02:03;5.23;;;3.43;;
16063;SDS011;8136;53.172;8.256;2023-11-21T16:04:44;3.87;;;2.87;;
16063;SDS011;8136;53.172;8.256;2023-11-21T16:07:46;3.63;;;3.17;;
16063;SDS011;8136;53.172;8.256;2023-11-21T16:10:52;4.13;;;3.00;;
16063;SDS011;8136;53.172;8.256;2023-11-21T16:16:50;3.50;;;2.83;;
16063;SDS011;8136;53.172;8.256;2023-11-21T16:19:50;4.17;;;3.10;;
16063;SDS011;8136;53.172;8.256;2023-11-21T16:22:18;4.13;;;3.13;;
16063;SDS011;8136;53.172;8.256;2023-11-21T16:41:10;5.80;;;3.20;;
16063;SDS011;8136;53.172;8.256;2023-11-21T17:43:01;2.90;;;2.20;;
16063;SDS011;8136;53.172;8.256;2023-11-21T17:45:33;2.30;;;2.10;;
16063;SDS011;8136;53.172;8.256;2023-11-21T17:48:16;2.47;;;2.23;;
16063;SDS011;8136;53.172;8.256;2023-11-21T17:50:51;4.40;;;3.20;;
16063;SDS011;8136;53.172;8.256;2023-11-21T17:53:18;7.13;;;5.33;;
16063;SDS011;8136;53.172;8.256;2023-11-21T17:55:44;5.47;;;3.70;;
16063;SDS011;8136;53.172;8.256;2023-11-21T17:58:13;3.93;;;3.00;;
16063;SDS011;8136;53.172;8.256;2023-11-21T18:00:41;3.03;;;2.73;;
16063;SDS011;8136;53.172;8.256;2023-11-21T18:03:10;4.00;;;2.70;;
16063;SDS011;8136;53.172;8.256;2023-11-21T18:05:37;6.63;;;4.17;;
16063;SDS011;8136;53.172;8.256;2023-11-21T18:08:04;5.30;;;4.63;;
16063;SDS011;8136;53.172;8.256;2023-11-21T18:10:31;4.03;;;3.63;;
16063;SDS011;8136;53.172;8.256;2023-11-21T18:12:59;3.47;;;2.90;;
16063;SDS011;8136;53.172;8.256;2023-11-21T18:15:28;3.73;;;2.73;;
16063;SDS011;8136;53.172;8.256;2023-11-21T18:17:54;2.50;;;2.30;;
16063;SDS011;8136;53.172;8.256;2023-11-21T18:20:22;3.83;;;2.70;;
16063;SDS011;8136;53.172;8.256;2023-11-21T18:22:49;3.67;;;2.73;;
16063;SDS011;8136;53.172;8.256;2023-11-21T18:25:16;3.97;;;3.37;;
16063;SDS011;8136;53.172;8.256;2023-11-21T18:27:43;3.23;;;2.57;;
16063;SDS011;8136;53.172;8.256;2023-11-21T18:30:10;3.23;;;2.60;;
16063;SDS011;8136;53.172;8.256;2023-11-21T18:32:40;3.40;;;2.47;;
16063;SDS011;8136;53.172;8.256;2023-11-21T18:35:07;11.40;;;9.60;;
16063;SDS011;8136;53.172;8.256;2023-11-21T18:37:35;8.73;;;6.93;;
16063;SDS011;8136;53.172;8.256;2023-11-21T18:40:04;5.37;;;4.83;;
16063;SDS011;8136;53.172;8.256;2023-11-21T18:42:40;4.77;;;3.40;;
16063;SDS011;8136;53.172;8.256;2023-11-21T18:45:09;3.10;;;2.80;;
16063;SDS011;8136;53.172;8.256;2023-11-21T18:47:37;6.20;;;3.00;;
16063;SDS011;8136;53.172;8.256;2023-11-21T19:00:31;3.50;;;2.97;;
16063;SDS011;8136;53.172;8.256;2023-11-21T19:02:58;2.90;;;2.40;;
16063;SDS011;8136;53.172;8.256;2023-11-21T19:05:25;3.23;;;2.60;;
16063;SDS011;8136;53.172;8.256;2023-11-21T19:07:52;6.60;;;3.17;;
16063;SDS011;8136;53.172;8.256;2023-11-21T19:10:18;2.90;;;2.60;;
16063;SDS011;8136;53.172;8.256;2023-11-21T19:12:49;3.03;;;2.73;;
16063;SDS011;8136;53.172;8.256;2023-11-21T19:15:19;6.33;;;2.47;;
16063;SDS011;8136;53.172;8.256;2023-11-21T19:17:48;5.87;;;2.60;;
16063;SDS011;8136;53.172;8.256;2023-11-21T19:20:15;2.70;;;2.17;;
16063;SDS011;8136;53.172;8.256;2023-11-21T19:22:43;5.23;;;2.27;;
16063;SDS011;8136;53.172;8.256;2023-11-21T19:25:12;4.17;;;2.87;;
16063;SDS011;8136;53.172;8.256;2023-11-21T19:27:40;2.87;;;2.30;;